sensor_id;sensor_type;location;lat;lon;timestamp;temperature;humidity
8178;DHT22;4130;48.740;9.132;2022-11-15T00:02:12;6.10;99.90
8178;DHT22;4130;48.740;9.132;2022-11-15T00:04:40;6.10;99.90
8178;DHT22;4130;48.740;9.132;2022-11-15T00:07:07;6.20;99.90
8178;DHT22;4130;48.740;9.132;2022-11-15T00:09:34;7.20;99.90
8178;DHT22;4130;48.740;9.132;2022-11-15T00:12:01;6.20;99.90
8178;DHT22;4130;48.740;9.132;2022-11-15T00:14:27;6.10;99.90
8178;DHT22;4130;48.740;9.132;2022-11-15T00:16:54;6.10;99.90
8178;DHT22;4130;48.740;9.132;2022-11-15T00:19:21;6.10;99.90
8178;DHT22;4130;48.740;9.132;2022-11-15T00:21:49;6.10;99.90
8178;DHT22;4130;48.740;9.132;2022-11-15T00:24:16;6.10;99.90
8178;DHT22;4130;48.740;9.132;2022-11-15T00:26:42;6.10;99.90
8178;DHT22;4130;48.740;9.132;2022-11-15T00:29:09;6.20;99.90
8178;DHT22;4130;48.740;9.132;2022-11-15T00:31:36;6.20;99.90
8178;DHT22;4130;48.740;9.132;2022-11-15T00:34:03;6.20;99.90
8178;DHT22;4130;48.740;9.132;2022-11-15T00:36:33;6.20;99.90
8178;DHT22;4130;48.740;9.132;2022-11-15T00:39:03;6.20;99.90
8178;DHT22;4130;48.740;9.132;2022-11-15T00:41:30;6.70;99.90
8178;DHT22;4130;48.740;9.132;2022-11-15T00:43:57;6.20;99.90
8178;DHT22;4130;48.740;9.132;2022-11-15T00:46:23;6.20;99.90
8178;DHT22;4130;48.740;9.132;2022-11-15T00:48:50;6.10;99.90
8178;DHT22;4130;48.740;9.132;2022-11-15T00:51:17;6.10;99.90
8178;DHT22;4130;48.740;9.132;2022-11-15T00:53:44;6.00;99.90
8178;DHT22;4130;48.740;9.132;2022-11-15T00:56:12;5.90;99.90
8178;DHT22;4130;48.740;9.132;2022-11-15T00:58:38;5.80;99.90
8178;DHT22;4130;48.740;9.132;2022-11-15T01:01:07;5.90;99.90
8178;DHT22;4130;48.740;9.132;2022-11-15T01:03:34;5.80;99.90
8178;DHT22;4130;48.740;9.132;2022-11-15T01:06:02;5.80;99.90
8178;DHT22;4130;48.740;9.132;2022-11-15T01:08:29;5.80;99.90
8178;DHT22;4130;48.740;9.132;2022-11-15T01:11:00;5.80;99.90
8178;DHT22;4130;48.740;9.132;2022-11-15T01:13:31;5.80;99.90
8178;DHT22;4130;48.740;9.132;2022-11-15T01:15:58;5.70;99.90
8178;DHT22;4130;48.740;9.132;2022-11-15T01:18:25;5.70;99.90
8178;DHT22;4130;48.740;9.132;2022-11-15T01:20:51;5.60;99.90
8178;DHT22;4130;48.740;9.132;2022-11-15T01:23:18;5.50;99.90
8178;DHT22;4130;48.740;9.132;2022-11-15T01:25:45;5.60;99.90
8178;DHT22;4130;48.740;9.132;2022-11-15T01:28:11;5.40;99.90
8178;DHT22;4130;48.740;9.132;2022-11-15T01:30:39;5.30;99.90
8178;DHT22;4130;48.740;9.132;2022-11-15T01:33:06;5.30;99.90
8178;DHT22;4130;48.740;9.132;2022-11-15T01:35:33;5.20;99.90
8178;DHT22;4130;48.740;9.132;2022-11-15T01:38:00;5.10;99.90
8178;DHT22;4130;48.740;9.132;2022-11-15T01:40:26;5.10;99.90
8178;DHT22;4130;48.740;9.132;2022-11-15T01:42:53;5.00;99.90
8178;DHT22;4130;48.740;9.132;2022-11-15T01:45:20;5.00;99.90
8178;DHT22;4130;48.740;9.132;2022-11-15T01:47:51;6.40;99.90
8178;DHT22;4130;48.740;9.132;2022-11-15T01:50:22;4.90;99.90
8178;DHT22;4130;48.740;9.132;2022-11-15T01:52:50;4.90;99.90
8178;DHT22;4130;48.740;9.132;2022-11-15T01:55:20;4.90;99.90
8178;DHT22;4130;48.740;9.132;2022-11-15T01:57:50;4.90;99.90
8178;DHT22;4130;48.740;9.132;2022-11-15T02:00:17;4.90;99.90
8178;DHT22;4130;48.740;9.132;2022-11-15T02:02:44;4.90;99.90
8178;DHT22;4130;48.740;9.132;2022-11-15T02:05:12;4.90;99.90
8178;DHT22;4130;48.740;9.132;2022-11-15T02:07:39;4.90;99.90
8178;DHT22;4130;48.740;9.132;2022-11-15T02:10:08;5.00;99.90
8178;DHT22;4130;48.740;9.132;2022-11-15T02:12:35;5.00;99.90
8178;DHT22;4130;48.740;9.132;2022-11-15T02:15:04;5.00;99.90
8178;DHT22;4130;48.740;9.132;2022-11-15T02:17:42;5.00;99.90
8178;DHT22;4130;48.740;9.132;2022-11-15T02:20:46;5.00;99.90
8178;DHT22;4130;48.740;9.132;2022-11-15T02:23:39;4.90;99.90
8178;DHT22;4130;48.740;9.132;2022-11-15T02:26:30;4.90;99.90
8178;DHT22;4130;48.740;9.132;2022-11-15T02:29:06;4.90;99.90
8178;DHT22;4130;48.740;9.132;2022-11-15T02:31:43;4.90;99.90
8178;DHT22;4130;48.740;9.132;2022-11-15T02:34:19;4.90;99.90
8178;DHT22;4130;48.740;9.132;2022-11-15T02:36:54;4.90;99.90
8178;DHT22;4130;48.740;9.132;2022-11-15T02:39:28;4.90;99.90
8178;DHT22;4130;48.740;9.132;2022-11-15T02:42:02;5.00;99.90
8178;DHT22;4130;48.740;9.132;2022-11-15T02:44:33;5.00;99.90
8178;DHT22;4130;48.740;9.132;2022-11-15T02:47:05;5.10;99.90
8178;DHT22;4130;48.740;9.132;2022-11-15T02:49:40;5.10;99.90
8178;DHT22;4130;48.740;9.132;2022-11-15T02:52:07;5.80;99.90
8178;DHT22;4130;48.740;9.132;2022-11-15T02:54:34;5.30;99.90
8178;DHT22;4130;48.740;9.132;2022-11-15T02:57:03;5.40;99.90
8178;DHT22;4130;48.740;9.132;2022-11-15T02:59:52;5.30;99.90
8178;DHT22;4130;48.740;9.132;2022-11-15T03:02:39;5.30;99.90
8178;DHT22;4130;48.740;9.132;2022-11-15T03:05:15;5.20;99.90
8178;DHT22;4130;48.740;9.132;2022-11-15T03:07:50;5.10;99.90
8178;DHT22;4130;48.740;9.132;2022-11-15T03:10:22;5.10;99.90
8178;DHT22;4130;48.740;9.132;2022-11-15T03:12:55;5.00;99.90
8178;DHT22;4130;48.740;9.132;2022-11-15T03:15:27;5.00;99.90
8178;DHT22;4130;48.740;9.132;2022-11-15T03:17:59;5.00;99.90
8178;DHT22;4130;48.740;9.132;2022-11-15T03:20:28;4.90;99.90
8178;DHT22;4130;48.740;9.132;2022-11-15T03:23:00;5.00;99.90
8178;DHT22;4130;48.740;9.132;2022-11-15T03:25:50;5.00;99.90
8178;DHT22;4130;48.740;9.132;2022-11-15T03:28:21;5.10;99.90
8178;DHT22;4130;48.740;9.132;2022-11-15T03:30:50;5.10;99.90
8178;DHT22;4130;48.740;9.132;2022-11-15T03:33:20;5.10;99.90
8178;DHT22;4130;48.740;9.132;2022-11-15T03:35:48;5.10;99.90
8178;DHT22;4130;48.740;9.132;2022-11-15T03:38:21;5.20;99.90
8178;DHT22;4130;48.740;9.132;2022-11-15T03:40:52;5.30;99.90
8178;DHT22;4130;48.740;9.132;2022-11-15T03:43:27;5.30;99.90
8178;DHT22;4130;48.740;9.132;2022-11-15T03:46:00;5.30;99.90
8178;DHT22;4130;48.740;9.132;2022-11-15T03:48:33;5.30;99.90
8178;DHT22;4130;48.740;9.132;2022-11-15T03:51:01;5.30;99.90
8178;DHT22;4130;48.740;9.132;2022-11-15T03:53:29;5.30;99.90
8178;DHT22;4130;48.740;9.132;2022-11-15T03:55:56;5.30;99.90
8178;DHT22;4130;48.740;9.132;2022-11-15T03:58:22;5.30;99.90
8178;DHT22;4130;48.740;9.132;2022-11-15T04:00:49;5.40;99.90
8178;DHT22;4130;48.740;9.132;2022-11-15T04:03:16;5.50;99.90
8178;DHT22;4130;48.740;9.132;2022-11-15T04:05:44;5.50;99.90
8178;DHT22;4130;48.740;9.132;2022-11-15T04:08:11;5.60;99.90
8178;DHT22;4130;48.740;9.132;2022-11-15T04:10:38;5.60;99.90
8178;DHT22;4130;48.740;9.132;2022-11-15T04:13:04;5.50;99.90
8178;DHT22;4130;48.740;9.132;2022-11-15T04:15:31;5.50;99.90
8178;DHT22;4130;48.740;9.132;2022-11-15T04:17:58;5.50;99.90
8178;DHT22;4130;48.740;9.132;2022-11-15T04:20:26;5.50;99.90
8178;DHT22;4130;48.740;9.132;2022-11-15T04:23:14;5.50;99.90
8178;DHT22;4130;48.740;9.132;2022-11-15T04:26:02;5.60;99.90
8178;DHT22;4130;48.740;9.132;2022-11-15T04:28:29;5.60;99.90
8178;DHT22;4130;48.740;9.132;2022-11-15T04:30:56;5.60;99.90
8178;DHT22;4130;48.740;9.132;2022-11-15T04:33:23;5.60;99.90
8178;DHT22;4130;48.740;9.132;2022-11-15T04:35:49;5.60;99.90
8178;DHT22;4130;48.740;9.132;2022-11-15T04:38:32;5.50;99.90
8178;DHT22;4130;48.740;9.132;2022-11-15T04:40:59;5.50;99.90
8178;DHT22;4130;48.740;9.132;2022-11-15T04:43:26;5.50;99.90
8178;DHT22;4130;48.740;9.132;2022-11-15T04:45:53;5.50;99.90
8178;DHT22;4130;48.740;9.132;2022-11-15T04:48:20;5.40;99.90
8178;DHT22;4130;48.740;9.132;2022-11-15T04:50:47;5.30;99.90
8178;DHT22;4130;48.740;9.132;2022-11-15T04:53:14;5.20;99.90
8178;DHT22;4130;48.740;9.132;2022-11-15T04:55:45;5.10;99.90
8178;DHT22;4130;48.740;9.132;2022-11-15T04:58:12;5.00;99.90
8178;DHT22;4130;48.740;9.132;2022-11-15T05:00:39;5.00;99.90
8178;DHT22;4130;48.740;9.132;2022-11-15T05:03:06;5.00;99.90
8178;DHT22;4130;48.740;9.132;2022-11-15T05:05:50;5.10;99.90
8178;DHT22;4130;48.740;9.132;2022-11-15T05:08:17;5.20;99.90
8178;DHT22;4130;48.740;9.132;2022-11-15T05:10:45;5.20;99.90
8178;DHT22;4130;48.740;9.132;2022-11-15T05:13:13;5.30;99.90
8178;DHT22;4130;48.740;9.132;2022-11-15T05:15:40;5.30;99.90
8178;DHT22;4130;48.740;9.132;2022-11-15T05:18:07;5.20;99.90
8178;DHT22;4130;48.740;9.132;2022-11-15T05:20:34;5.10;99.90
8178;DHT22;4130;48.740;9.132;2022-11-15T05:23:01;5.00;99.90
8178;DHT22;4130;48.740;9.132;2022-11-15T05:25:28;4.90;99.90
8178;DHT22;4130;48.740;9.132;2022-11-15T05:27:56;4.80;99.90
8178;DHT22;4130;48.740;9.132;2022-11-15T05:30:22;4.80;99.90
8178;DHT22;4130;48.740;9.132;2022-11-15T05:32:50;4.80;99.90
8178;DHT22;4130;48.740;9.132;2022-11-15T05:35:21;4.90;99.90
8178;DHT22;4130;48.740;9.132;2022-11-15T05:37:52;5.60;99.90
8178;DHT22;4130;48.740;9.132;2022-11-15T05:40:19;5.10;99.90
8178;DHT22;4130;48.740;9.132;2022-11-15T05:42:46;5.10;99.90
8178;DHT22;4130;48.740;9.132;2022-11-15T05:45:14;5.10;99.90
8178;DHT22;4130;48.740;9.132;2022-11-15T05:47:42;5.20;99.90
8178;DHT22;4130;48.740;9.132;2022-11-15T05:50:11;5.20;99.90
8178;DHT22;4130;48.740;9.132;2022-11-15T05:52:38;5.20;99.90
8178;DHT22;4130;48.740;9.132;2022-11-15T05:55:07;5.30;99.90
8178;DHT22;4130;48.740;9.132;2022-11-15T05:57:35;5.20;99.90
8178;DHT22;4130;48.740;9.132;2022-11-15T06:00:03;5.20;99.90
8178;DHT22;4130;48.740;9.132;2022-11-15T06:02:32;5.10;99.90
8178;DHT22;4130;48.740;9.132;2022-11-15T06:04:58;5.10;99.90
8178;DHT22;4130;48.740;9.132;2022-11-15T06:07:25;5.10;99.90
8178;DHT22;4130;48.740;9.132;2022-11-15T06:09:52;5.10;99.90
8178;DHT22;4130;48.740;9.132;2022-11-15T06:12:19;5.10;99.90
8178;DHT22;4130;48.740;9.132;2022-11-15T06:14:45;5.10;99.90
8178;DHT22;4130;48.740;9.132;2022-11-15T06:17:12;5.10;99.90
8178;DHT22;4130;48.740;9.132;2022-11-15T06:19:40;5.00;99.90
8178;DHT22;4130;48.740;9.132;2022-11-15T06:22:07;5.00;99.90
8178;DHT22;4130;48.740;9.132;2022-11-15T06:24:34;5.00;99.90
8178;DHT22;4130;48.740;9.132;2022-11-15T06:27:01;4.90;99.90
8178;DHT22;4130;48.740;9.132;2022-11-15T06:29:28;4.90;99.90
8178;DHT22;4130;48.740;9.132;2022-11-15T06:31:54;5.00;99.90
8178;DHT22;4130;48.740;9.132;2022-11-15T06:34:21;5.00;99.90
8178;DHT22;4130;48.740;9.132;2022-11-15T06:36:49;5.00;99.90
8178;DHT22;4130;48.740;9.132;2022-11-15T06:39:16;5.00;99.90
8178;DHT22;4130;48.740;9.132;2022-11-15T06:41:43;5.00;99.90
8178;DHT22;4130;48.740;9.132;2022-11-15T06:44:10;5.00;99.90
8178;DHT22;4130;48.740;9.132;2022-11-15T06:46:36;5.00;99.90
8178;DHT22;4130;48.740;9.132;2022-11-15T06:49:03;5.00;99.90
8178;DHT22;4130;48.740;9.132;2022-11-15T06:51:30;5.10;99.90
8178;DHT22;4130;48.740;9.132;2022-11-15T06:53:58;5.10;99.90
8178;DHT22;4130;48.740;9.132;2022-11-15T06:56:25;5.20;99.90
8178;DHT22;4130;48.740;9.132;2022-11-15T06:58:52;5.20;99.90
8178;DHT22;4130;48.740;9.132;2022-11-15T07:01:18;5.30;99.90
8178;DHT22;4130;48.740;9.132;2022-11-15T07:03:45;4.50;99.90
8178;DHT22;4130;48.740;9.132;2022-11-15T07:06:12;5.50;99.90
8178;DHT22;4130;48.740;9.132;2022-11-15T07:08:39;5.60;99.90
8178;DHT22;4130;48.740;9.132;2022-11-15T07:11:08;5.70;99.90
8178;DHT22;4130;48.740;9.132;2022-11-15T07:13:36;5.80;99.90
8178;DHT22;4130;48.740;9.132;2022-11-15T07:16:04;5.80;99.90
8178;DHT22;4130;48.740;9.132;2022-11-15T07:18:33;5.90;99.90
8178;DHT22;4130;48.740;9.132;2022-11-15T07:21:01;6.60;99.90
8178;DHT22;4130;48.740;9.132;2022-11-15T07:23:28;6.10;99.90
8178;DHT22;4130;48.740;9.132;2022-11-15T07:25:56;6.20;99.90
8178;DHT22;4130;48.740;9.132;2022-11-15T07:28:26;6.40;99.90
8178;DHT22;4130;48.740;9.132;2022-11-15T07:30:54;6.40;99.90
8178;DHT22;4130;48.740;9.132;2022-11-15T07:33:21;6.50;99.90
8178;DHT22;4130;48.740;9.132;2022-11-15T07:35:48;6.70;99.90
8178;DHT22;4130;48.740;9.132;2022-11-15T07:38:15;6.80;99.90
8178;DHT22;4130;48.740;9.132;2022-11-15T07:40:44;6.90;99.90
8178;DHT22;4130;48.740;9.132;2022-11-15T07:43:11;7.10;99.90
8178;DHT22;4130;48.740;9.132;2022-11-15T07:45:42;7.30;99.90
8178;DHT22;4130;48.740;9.132;2022-11-15T07:48:09;7.50;99.90
8178;DHT22;4130;48.740;9.132;2022-11-15T07:50:36;7.70;99.90
8178;DHT22;4130;48.740;9.132;2022-11-15T07:53:03;7.80;99.90
8178;DHT22;4130;48.740;9.132;2022-11-15T07:55:30;7.90;99.90
8178;DHT22;4130;48.740;9.132;2022-11-15T07:58:00;8.10;99.90
8178;DHT22;4130;48.740;9.132;2022-11-15T08:00:28;8.20;99.90
8178;DHT22;4130;48.740;9.132;2022-11-15T08:03:03;8.40;99.90
8178;DHT22;4130;48.740;9.132;2022-11-15T08:05:30;8.60;99.90
8178;DHT22;4130;48.740;9.132;2022-11-15T08:07:56;8.80;99.90
8178;DHT22;4130;48.740;9.132;2022-11-15T08:10:23;8.90;99.90
8178;DHT22;4130;48.740;9.132;2022-11-15T08:12:57;8.90;99.90
8178;DHT22;4130;48.740;9.132;2022-11-15T08:15:24;8.90;99.90
8178;DHT22;4130;48.740;9.132;2022-11-15T08:17:54;8.90;99.90
8178;DHT22;4130;48.740;9.132;2022-11-15T08:20:22;8.90;99.90
8178;DHT22;4130;48.740;9.132;2022-11-15T08:22:49;8.80;99.90
8178;DHT22;4130;48.740;9.132;2022-11-15T08:25:16;8.70;99.90
8178;DHT22;4130;48.740;9.132;2022-11-15T08:27:43;8.70;99.90
8178;DHT22;4130;48.740;9.132;2022-11-15T08:30:11;8.70;99.90
8178;DHT22;4130;48.740;9.132;2022-11-15T08:32:39;8.70;99.90
8178;DHT22;4130;48.740;9.132;2022-11-15T08:35:06;8.70;99.90
8178;DHT22;4130;48.740;9.132;2022-11-15T08:37:35;8.70;99.90
8178;DHT22;4130;48.740;9.132;2022-11-15T08:40:02;9.90;99.90
8178;DHT22;4130;48.740;9.132;2022-11-15T08:42:29;8.70;99.90
8178;DHT22;4130;48.740;9.132;2022-11-15T08:44:56;8.70;99.90
8178;DHT22;4130;48.740;9.132;2022-11-15T08:47:23;8.80;99.90
8178;DHT22;4130;48.740;9.132;2022-11-15T08:49:50;9.00;99.90
8178;DHT22;4130;48.740;9.132;2022-11-15T08:52:17;9.20;99.90
8178;DHT22;4130;48.740;9.132;2022-11-15T08:54:45;9.30;99.90
8178;DHT22;4130;48.740;9.132;2022-11-15T08:57:12;9.50;99.90
8178;DHT22;4130;48.740;9.132;2022-11-15T08:59:38;9.70;99.90
8178;DHT22;4130;48.740;9.132;2022-11-15T09:02:05;9.90;99.90
8178;DHT22;4130;48.740;9.132;2022-11-15T09:04:32;10.20;99.90
8178;DHT22;4130;48.740;9.132;2022-11-15T09:06:59;10.40;99.90
8178;DHT22;4130;48.740;9.132;2022-11-15T09:09:26;10.70;99.90
8178;DHT22;4130;48.740;9.132;2022-11-15T09:11:54;10.90;99.90
8178;DHT22;4130;48.740;9.132;2022-11-15T09:14:20;11.10;99.90
8178;DHT22;4130;48.740;9.132;2022-11-15T09:16:47;11.30;99.90
8178;DHT22;4130;48.740;9.132;2022-11-15T09:19:14;11.50;99.90
8178;DHT22;4130;48.740;9.132;2022-11-15T09:21:41;11.90;99.90
8178;DHT22;4130;48.740;9.132;2022-11-15T09:24:08;11.40;99.90
8178;DHT22;4130;48.740;9.132;2022-11-15T09:26:34;12.10;99.90
8178;DHT22;4130;48.740;9.132;2022-11-15T09:29:02;12.90;99.90
8178;DHT22;4130;48.740;9.132;2022-11-15T09:31:29;12.40;99.90
8178;DHT22;4130;48.740;9.132;2022-11-15T09:33:56;12.60;99.90
8178;DHT22;4130;48.740;9.132;2022-11-15T09:36:23;12.80;99.90
8178;DHT22;4130;48.740;9.132;2022-11-15T09:38:50;12.90;99.90
8178;DHT22;4130;48.740;9.132;2022-11-15T09:41:37;13.10;99.90
8178;DHT22;4130;48.740;9.132;2022-11-15T09:44:21;13.20;99.90
8178;DHT22;4130;48.740;9.132;2022-11-15T09:46:55;13.40;99.90
8178;DHT22;4130;48.740;9.132;2022-11-15T09:49:25;13.50;99.90
8178;DHT22;4130;48.740;9.132;2022-11-15T09:51:53;13.70;99.90
8178;DHT22;4130;48.740;9.132;2022-11-15T09:54:26;13.70;99.90
8178;DHT22;4130;48.740;9.132;2022-11-15T09:57:03;13.70;99.90
8178;DHT22;4130;48.740;9.132;2022-11-15T09:59:44;13.70;99.90
8178;DHT22;4130;48.740;9.132;2022-11-15T10:02:23;13.80;99.90
8178;DHT22;4130;48.740;9.132;2022-11-15T10:04:57;13.90;99.90
8178;DHT22;4130;48.740;9.132;2022-11-15T10:07:28;13.80;99.90
8178;DHT22;4130;48.740;9.132;2022-11-15T10:10:04;13.90;99.90
8178;DHT22;4130;48.740;9.132;2022-11-15T10:12:34;14.00;99.90
8178;DHT22;4130;48.740;9.132;2022-11-15T10:15:06;13.90;99.90
8178;DHT22;4130;48.740;9.132;2022-11-15T10:20:42;13.90;99.90
8178;DHT22;4130;48.740;9.132;2022-11-15T10:23:13;13.90;99.90
8178;DHT22;4130;48.740;9.132;2022-11-15T10:25:40;14.00;99.90
8178;DHT22;4130;48.740;9.132;2022-11-15T10:28:14;14.20;99.90
8178;DHT22;4130;48.740;9.132;2022-11-15T10:30:44;14.20;99.90
8178;DHT22;4130;48.740;9.132;2022-11-15T10:33:20;14.10;99.90
8178;DHT22;4130;48.740;9.132;2022-11-15T10:35:49;14.10;99.90
8178;DHT22;4130;48.740;9.132;2022-11-15T10:38:52;14.20;99.90
8178;DHT22;4130;48.740;9.132;2022-11-15T10:41:21;14.20;99.90
8178;DHT22;4130;48.740;9.132;2022-11-15T10:47:19;14.20;99.90
8178;DHT22;4130;48.740;9.132;2022-11-15T10:49:54;14.30;99.90
8178;DHT22;4130;48.740;9.132;2022-11-15T10:52:21;14.40;99.90
8178;DHT22;4130;48.740;9.132;2022-11-15T10:54:52;14.40;99.90
8178;DHT22;4130;48.740;9.132;2022-11-15T10:57:22;14.40;99.90
8178;DHT22;4130;48.740;9.132;2022-11-15T10:59:52;14.40;99.90
8178;DHT22;4130;48.740;9.132;2022-11-15T11:02:32;15.20;99.90
8178;DHT22;4130;48.740;9.132;2022-11-15T11:05:01;14.20;99.90
8178;DHT22;4130;48.740;9.132;2022-11-15T11:07:30;14.20;99.90
8178;DHT22;4130;48.740;9.132;2022-11-15T11:09:59;14.00;99.90
8178;DHT22;4130;48.740;9.132;2022-11-15T11:12:30;13.90;99.90
8178;DHT22;4130;48.740;9.132;2022-11-15T11:14:58;13.80;99.90
8178;DHT22;4130;48.740;9.132;2022-11-15T11:17:38;13.80;99.90
8178;DHT22;4130;48.740;9.132;2022-11-15T11:20:14;13.80;99.90
8178;DHT22;4130;48.740;9.132;2022-11-15T11:22:59;14.00;99.90
8178;DHT22;4130;48.740;9.132;2022-11-15T11:25:33;15.10;99.90
8178;DHT22;4130;48.740;9.132;2022-11-15T11:28:24;14.20;99.90
8178;DHT22;4130;48.740;9.132;2022-11-15T11:31:00;14.20;99.90
8178;DHT22;4130;48.740;9.132;2022-11-15T11:33:40;14.30;99.90
8178;DHT22;4130;48.740;9.132;2022-11-15T11:36:19;14.50;99.90
8178;DHT22;4130;48.740;9.132;2022-11-15T11:38:55;14.50;99.90
8178;DHT22;4130;48.740;9.132;2022-11-15T11:41:39;14.50;99.90
8178;DHT22;4130;48.740;9.132;2022-11-15T11:44:27;14.60;99.90
8178;DHT22;4130;48.740;9.132;2022-11-15T11:46:59;14.90;99.90
8178;DHT22;4130;48.740;9.132;2022-11-15T11:49:34;14.80;99.90
8178;DHT22;4130;48.740;9.132;2022-11-15T11:52:07;16.50;99.90
8178;DHT22;4130;48.740;9.132;2022-11-15T11:54:48;15.40;99.90
8178;DHT22;4130;48.740;9.132;2022-11-15T11:57:25;15.20;99.90
8178;DHT22;4130;48.740;9.132;2022-11-15T11:59:58;14.90;99.90
8178;DHT22;4130;48.740;9.132;2022-11-15T12:02:31;15.20;99.90
8178;DHT22;4130;48.740;9.132;2022-11-15T12:05:07;15.80;99.90
8178;DHT22;4130;48.740;9.132;2022-11-15T12:07:38;15.00;99.90
8178;DHT22;4130;48.740;9.132;2022-11-15T12:10:15;15.20;99.90
8178;DHT22;4130;48.740;9.132;2022-11-15T12:12:49;15.10;99.90
8178;DHT22;4130;48.740;9.132;2022-11-15T12:15:20;15.10;99.90
8178;DHT22;4130;48.740;9.132;2022-11-15T12:17:48;14.90;99.90
8178;DHT22;4130;48.740;9.132;2022-11-15T12:20:19;14.80;99.90
8178;DHT22;4130;48.740;9.132;2022-11-15T12:22:51;14.80;99.90
8178;DHT22;4130;48.740;9.132;2022-11-15T12:25:22;14.80;99.90
8178;DHT22;4130;48.740;9.132;2022-11-15T12:27:52;14.70;99.90
8178;DHT22;4130;48.740;9.132;2022-11-15T12:30:21;14.90;99.90
8178;DHT22;4130;48.740;9.132;2022-11-15T12:32:54;14.40;99.90
8178;DHT22;4130;48.740;9.132;2022-11-15T12:35:30;14.50;99.90
8178;DHT22;4130;48.740;9.132;2022-11-15T12:37:59;14.30;99.90
8178;DHT22;4130;48.740;9.132;2022-11-15T12:40:28;14.30;99.90
8178;DHT22;4130;48.740;9.132;2022-11-15T12:45:46;14.20;99.90
8178;DHT22;4130;48.740;9.132;2022-11-15T12:48:48;14.20;99.90
8178;DHT22;4130;48.740;9.132;2022-11-15T12:51:19;14.10;99.90
8178;DHT22;4130;48.740;9.132;2022-11-15T12:53:46;14.10;99.90
8178;DHT22;4130;48.740;9.132;2022-11-15T12:56:31;14.10;99.90
8178;DHT22;4130;48.740;9.132;2022-11-15T12:58:59;14.00;99.90
8178;DHT22;4130;48.740;9.132;2022-11-15T13:01:59;14.00;99.90
8178;DHT22;4130;48.740;9.132;2022-11-15T13:04:29;14.00;99.90
8178;DHT22;4130;48.740;9.132;2022-11-15T13:07:00;14.00;99.90
8178;DHT22;4130;48.740;9.132;2022-11-15T13:09:54;14.00;99.90
8178;DHT22;4130;48.740;9.132;2022-11-15T13:12:50;14.50;99.90
8178;DHT22;4130;48.740;9.132;2022-11-15T13:15:51;13.80;99.90
8178;DHT22;4130;48.740;9.132;2022-11-15T13:18:34;13.80;99.90
8178;DHT22;4130;48.740;9.132;2022-11-15T13:21:02;13.70;99.90
8178;DHT22;4130;48.740;9.132;2022-11-15T13:23:53;14.50;99.90
8178;DHT22;4130;48.740;9.132;2022-11-15T13:26:21;13.70;99.90
8178;DHT22;4130;48.740;9.132;2022-11-15T13:28:50;13.70;99.90
8178;DHT22;4130;48.740;9.132;2022-11-15T13:31:28;13.80;99.90
8178;DHT22;4130;48.740;9.132;2022-11-15T13:33:58;13.70;99.90
8178;DHT22;4130;48.740;9.132;2022-11-15T13:36:28;13.70;99.90
8178;DHT22;4130;48.740;9.132;2022-11-15T13:38:59;14.50;99.90
8178;DHT22;4130;48.740;9.132;2022-11-15T13:41:29;13.80;99.90
8178;DHT22;4130;48.740;9.132;2022-11-15T13:43:57;13.50;99.90
8178;DHT22;4130;48.740;9.132;2022-11-15T13:46:26;13.50;99.90
8178;DHT22;4130;48.740;9.132;2022-11-15T13:48:56;14.70;99.90
8178;DHT22;4130;48.740;9.132;2022-11-15T13:51:37;13.50;99.90
8178;DHT22;4130;48.740;9.132;2022-11-15T13:54:27;13.40;99.90
8178;DHT22;4130;48.740;9.132;2022-11-15T13:56:57;13.30;99.90
8178;DHT22;4130;48.740;9.132;2022-11-15T13:59:28;14.50;99.90
8178;DHT22;4130;48.740;9.132;2022-11-15T14:01:58;13.10;99.90
8178;DHT22;4130;48.740;9.132;2022-11-15T14:04:28;13.70;99.90
8178;DHT22;4130;48.740;9.132;2022-11-15T14:06:59;12.70;99.90
8178;DHT22;4130;48.740;9.132;2022-11-15T14:09:37;12.40;99.90
8178;DHT22;4130;48.740;9.132;2022-11-15T14:12:24;12.30;99.90
8178;DHT22;4130;48.740;9.132;2022-11-15T14:14:51;12.40;99.90
8178;DHT22;4130;48.740;9.132;2022-11-15T14:17:20;12.20;99.90
8178;DHT22;4130;48.740;9.132;2022-11-15T14:19:49;12.90;99.90
8178;DHT22;4130;48.740;9.132;2022-11-15T14:22:19;12.50;99.90
8178;DHT22;4130;48.740;9.132;2022-11-15T14:25:07;11.90;99.90
8178;DHT22;4130;48.740;9.132;2022-11-15T14:27:40;12.00;99.90
8178;DHT22;4130;48.740;9.132;2022-11-15T14:30:13;12.10;99.90
8178;DHT22;4130;48.740;9.132;2022-11-15T14:32:49;13.50;99.90
8178;DHT22;4130;48.740;9.132;2022-11-15T14:35:20;12.10;99.90
8178;DHT22;4130;48.740;9.132;2022-11-15T14:37:47;12.00;99.90
8178;DHT22;4130;48.740;9.132;2022-11-15T14:40:18;12.10;99.90
8178;DHT22;4130;48.740;9.132;2022-11-15T14:42:47;12.10;99.90
8178;DHT22;4130;48.740;9.132;2022-11-15T14:45:18;12.10;99.90
8178;DHT22;4130;48.740;9.132;2022-11-15T14:47:46;12.10;99.90
8178;DHT22;4130;48.740;9.132;2022-11-15T14:50:14;12.10;99.90
8178;DHT22;4130;48.740;9.132;2022-11-15T14:52:42;12.10;99.90
8178;DHT22;4130;48.740;9.132;2022-11-15T14:55:17;11.90;99.90
8178;DHT22;4130;48.740;9.132;2022-11-15T14:57:45;12.10;99.90
8178;DHT22;4130;48.740;9.132;2022-11-15T15:00:13;12.10;99.90
8178;DHT22;4130;48.740;9.132;2022-11-15T15:02:42;12.20;99.90
8178;DHT22;4130;48.740;9.132;2022-11-15T15:05:18;12.10;99.90
8178;DHT22;4130;48.740;9.132;2022-11-15T15:07:45;12.40;99.90
8178;DHT22;4130;48.740;9.132;2022-11-15T15:10:14;11.90;99.90
8178;DHT22;4130;48.740;9.132;2022-11-15T15:12:42;11.70;99.90
8178;DHT22;4130;48.740;9.132;2022-11-15T15:15:14;11.70;99.90
8178;DHT22;4130;48.740;9.132;2022-11-15T15:17:43;11.70;99.90
8178;DHT22;4130;48.740;9.132;2022-11-15T15:20:10;12.20;99.90
8178;DHT22;4130;48.740;9.132;2022-11-15T15:22:40;11.50;99.90
8178;DHT22;4130;48.740;9.132;2022-11-15T15:25:21;11.40;99.90
8178;DHT22;4130;48.740;9.132;2022-11-15T15:27:50;11.30;99.90
8178;DHT22;4130;48.740;9.132;2022-11-15T15:30:20;11.20;99.90
8178;DHT22;4130;48.740;9.132;2022-11-15T15:32:47;11.10;99.90
8178;DHT22;4130;48.740;9.132;2022-11-15T15:35:16;11.00;99.90
8178;DHT22;4130;48.740;9.132;2022-11-15T15:37:45;10.90;99.90
8178;DHT22;4130;48.740;9.132;2022-11-15T15:40:22;10.80;99.90
8178;DHT22;4130;48.740;9.132;2022-11-15T15:42:57;10.40;99.90
8178;DHT22;4130;48.740;9.132;2022-11-15T15:45:26;10.70;99.90
8178;DHT22;4130;48.740;9.132;2022-11-15T15:47:57;10.70;99.90
8178;DHT22;4130;48.740;9.132;2022-11-15T15:50:44;10.50;99.90
8178;DHT22;4130;48.740;9.132;2022-11-15T15:56:36;10.50;99.90
8178;DHT22;4130;48.740;9.132;2022-11-15T15:59:05;10.50;99.90
8178;DHT22;4130;48.740;9.132;2022-11-15T16:01:33;10.30;99.90
8178;DHT22;4130;48.740;9.132;2022-11-15T16:04:00;10.40;99.90
8178;DHT22;4130;48.740;9.132;2022-11-15T16:06:49;10.40;99.90
8178;DHT22;4130;48.740;9.132;2022-11-15T16:09:19;10.40;99.90
8178;DHT22;4130;48.740;9.132;2022-11-15T16:12:07;10.40;99.90
8178;DHT22;4130;48.740;9.132;2022-11-15T16:14:37;10.40;99.90
8178;DHT22;4130;48.740;9.132;2022-11-15T16:17:05;10.20;99.90
8178;DHT22;4130;48.740;9.132;2022-11-15T16:19:39;10.40;99.90
8178;DHT22;4130;48.740;9.132;2022-11-15T16:22:06;10.80;99.90
8178;DHT22;4130;48.740;9.132;2022-11-15T16:24:35;10.20;99.90
8178;DHT22;4130;48.740;9.132;2022-11-15T16:27:02;10.50;99.90
8178;DHT22;4130;48.740;9.132;2022-11-15T16:29:29;10.20;99.90
8178;DHT22;4130;48.740;9.132;2022-11-15T16:31:57;10.30;99.90
8178;DHT22;4130;48.740;9.132;2022-11-15T16:34:25;10.30;99.90
8178;DHT22;4130;48.740;9.132;2022-11-15T16:37:02;10.40;99.90
8178;DHT22;4130;48.740;9.132;2022-11-15T16:39:51;10.30;99.90
8178;DHT22;4130;48.740;9.132;2022-11-15T16:42:18;10.20;99.90
8178;DHT22;4130;48.740;9.132;2022-11-15T16:44:49;10.40;99.90
8178;DHT22;4130;48.740;9.132;2022-11-15T16:47:36;10.10;99.90